createdAt,value
2017-11-03T00:01:01.289Z,99139
2017-11-03T00:03:06.823Z,99141
2017-11-03T00:05:12.502Z,99137
2017-11-03T00:07:18.362Z,99139
2017-11-03T00:09:24.827Z,99141
2017-11-03T00:11:30.338Z,99145
2017-11-03T00:13:36.292Z,99144
2017-11-03T00:15:41.692Z,99148
2017-11-03T00:17:47.389Z,99143
2017-11-03T00:19:54.072Z,99148
2017-11-03T00:22:00.416Z,99152
2017-11-03T00:24:07.891Z,99156
2017-11-03T00:26:18.164Z,99154
2017-11-03T00:28:24.330Z,99152
2017-11-03T00:30:30.308Z,99158
2017-11-03T00:32:37.891Z,99157
2017-11-03T00:34:44.551Z,99166
2017-11-03T00:36:51.584Z,99157
2017-11-03T00:38:58.417Z,99157
2017-11-03T00:41:05.880Z,99162
2017-11-03T00:43:13.769Z,99164
2017-11-03T00:45:19.953Z,99156
2017-11-03T00:47:25.700Z,99154
2017-11-03T00:49:31.397Z,99149
2017-11-03T00:51:37.318Z,99155
2017-11-03T00:53:43.122Z,99147
2017-11-03T00:55:49.105Z,99148
2017-11-03T00:57:55.212Z,99143
2017-11-03T01:00:01.630Z,99149
2017-11-03T01:02:09.675Z,99137
2017-11-03T01:04:16.270Z,99140
2017-11-03T01:06:22.520Z,99147
2017-11-03T01:08:29.155Z,99145
2017-11-03T01:10:34.768Z,99139
2017-11-03T01:12:40.413Z,99133
2017-11-03T01:14:46.025Z,99134
2017-11-03T01:16:51.833Z,99139
2017-11-03T01:18:58.055Z,99137
2017-11-03T01:21:05.723Z,99138
2017-11-03T01:23:14.555Z,99137
2017-11-03T01:25:20.137Z,99143
2017-11-03T01:27:25.754Z,99144
2017-11-03T01:29:31.633Z,99142
2017-11-03T01:31:37.177Z,99150
2017-11-03T01:33:42.787Z,99149
2017-11-03T01:35:48.680Z,99157
2017-11-03T01:37:55.320Z,99152
2017-11-03T01:40:02.287Z,99135
2017-11-03T01:42:10.420Z,99145
2017-11-03T01:44:16.280Z,99156
2017-11-03T01:46:21.956Z,99152
2017-11-03T01:48:27.523Z,99159
2017-11-03T01:50:34.121Z,99152
2017-11-03T01:52:39.818Z,99154
2017-11-03T01:54:45.398Z,99151
2017-11-03T01:56:50.984Z,99156
2017-11-03T01:58:59.016Z,99154
2017-11-03T02:01:08.400Z,99157
2017-11-03T02:03:15.377Z,99163
2017-11-03T02:05:21.083Z,99157
2017-11-03T02:07:26.546Z,99166
2017-11-03T02:09:32.531Z,99161
2017-11-03T02:11:38.107Z,99166
2017-11-03T02:13:43.645Z,99155
2017-11-03T02:15:49.446Z,99167
2017-11-03T02:17:55.363Z,99166
2017-11-03T02:20:01.457Z,99165
2017-11-03T02:22:13.406Z,99163
2017-11-03T02:24:18.943Z,99170
2017-11-03T02:26:24.641Z,99170
2017-11-03T02:28:30.367Z,99177
2017-11-03T02:30:36.406Z,99182
2017-11-03T02:32:42.549Z,99179
2017-11-03T02:34:48.094Z,99182
2017-11-03T02:36:55.306Z,99178
2017-11-03T02:39:04.294Z,99187
2017-11-03T02:41:12.448Z,99188
2017-11-03T02:43:18.860Z,99183
2017-11-03T02:45:24.677Z,99193
2017-11-03T02:47:30.365Z,99198
2017-11-03T02:49:36.630Z,99193
2017-11-03T02:51:42.370Z,99190
2017-11-03T02:53:47.933Z,99195
2017-11-03T02:55:55.026Z,99188
2017-11-03T02:58:01.821Z,99191
2017-11-03T03:00:13.303Z,99196
2017-11-03T03:02:20.902Z,99190
2017-11-03T03:04:28.544Z,99193
2017-11-03T03:06:34.136Z,99198
2017-11-03T03:08:41.027Z,99204
2017-11-03T03:13:20.246Z,99198
2017-11-03T03:15:26.205Z,99197
2017-11-03T03:17:32.250Z,99193
2017-11-03T03:19:37.858Z,99195
2017-11-03T03:21:43.520Z,99192
2017-11-03T03:23:49.983Z,99190
2017-11-03T03:25:56.384Z,99194
2017-11-03T03:28:04.641Z,99187
2017-11-03T03:30:12.587Z,99193
2017-11-03T03:32:18.267Z,99203
2017-11-03T03:34:24.478Z,99194
2017-11-03T03:36:30.385Z,99195
2017-11-03T03:38:36.412Z,99194
2017-11-03T03:40:42.001Z,99200
2017-11-03T03:42:47.858Z,99199
2017-11-03T03:44:55.366Z,99197
2017-11-03T03:47:03.001Z,99196
2017-11-03T03:49:11.142Z,99201
2017-11-03T03:51:16.654Z,99205
2017-11-03T03:53:22.179Z,99202
2017-11-03T03:55:27.851Z,99206
2017-11-03T03:57:33.827Z,99209
2017-11-03T03:59:39.640Z,99206
2017-11-03T04:01:45.193Z,99210
2017-11-03T04:03:50.906Z,99215
2017-11-03T04:05:57.706Z,99215
2017-11-03T04:08:03.737Z,99211
2017-11-03T04:10:10.983Z,99217
2017-11-03T04:12:16.510Z,99216
2017-11-03T04:14:22.076Z,99211
2017-11-03T04:16:27.518Z,99218
2017-11-03T04:18:33.144Z,99221
2017-11-03T04:20:38.740Z,99230
2017-11-03T04:22:44.244Z,99227
2017-11-03T04:24:51.409Z,99220
2017-11-03T04:26:57.823Z,99223
2017-11-03T04:29:04.476Z,99225
2017-11-03T04:31:13.326Z,99225
2017-11-03T04:33:19.277Z,99226
2017-11-03T04:35:24.994Z,99227
2017-11-03T04:37:30.742Z,99229
2017-11-03T04:39:36.726Z,99228
2017-11-03T04:41:42.304Z,99226
2017-11-03T04:43:47.815Z,99228
2017-11-03T04:45:54.655Z,99232
2017-11-03T04:48:00.667Z,99233
2017-11-03T04:50:10.621Z,99236
2017-11-03T04:52:16.266Z,99233
2017-11-03T04:54:21.754Z,99234
2017-11-03T04:56:29.731Z,99237
2017-11-03T04:58:36.285Z,99235
2017-11-03T05:00:42.741Z,99237
2017-11-03T05:02:52.982Z,99238
2017-11-03T05:05:05.900Z,99237
2017-11-03T05:07:12.373Z,99237
2017-11-03T05:09:18.285Z,99239
2017-11-03T05:11:23.689Z,99238
2017-11-03T05:13:29.505Z,99236
2017-11-03T05:15:35.798Z,99234
2017-11-03T05:17:41.344Z,99237
2017-11-03T05:19:47.011Z,99233
2017-11-03T05:21:53.108Z,99235
2017-11-03T05:24:00.449Z,99234
2017-11-03T05:26:16.622Z,99235
2017-11-03T05:28:25.996Z,99234
2017-11-03T05:30:33.989Z,99230
2017-11-03T05:32:41.732Z,99235
2017-11-03T05:34:49.486Z,99231
2017-11-03T05:36:57.143Z,99232
2017-11-03T05:39:07.844Z,99235
2017-11-03T05:41:13.875Z,99237
2017-11-03T05:43:19.594Z,99241
2017-11-03T05:45:25.194Z,99243
2017-11-03T05:47:31.057Z,99249
2017-11-03T05:49:37.920Z,99245
2017-11-03T05:51:43.502Z,99245
2017-11-03T05:53:50.221Z,99247
2017-11-03T05:56:00.525Z,99247
2017-11-03T05:58:07.473Z,99249
2017-11-03T06:00:13.368Z,99245
2017-11-03T06:02:19.657Z,99243
2017-11-03T06:04:25.618Z,99248
2017-11-03T06:06:31.501Z,99246
2017-11-03T06:08:38.750Z,99253
2017-11-03T06:10:44.718Z,99253
2017-11-03T06:12:51.441Z,99254
2017-11-03T06:15:03.502Z,99252
2017-11-03T06:17:10.972Z,99256
2017-11-03T06:19:16.988Z,99261
2017-11-03T06:21:23.346Z,99266
2017-11-03T06:23:38.341Z,99264
2017-11-03T06:25:44.299Z,99261
2017-11-03T06:27:50.556Z,99266
2017-11-03T06:29:57.907Z,99267
2017-11-03T06:32:06.430Z,99270
2017-11-03T06:34:12.277Z,99268
2017-11-03T06:36:18.296Z,99268
2017-11-03T06:38:23.714Z,99272
2017-11-03T06:40:38.759Z,99275
2017-11-03T06:42:45.231Z,99281
2017-11-03T06:44:52.587Z,99280
2017-11-03T06:46:59.607Z,99283
2017-11-03T06:49:07.246Z,99281
2017-11-03T06:51:14.201Z,99282
2017-11-03T06:53:20.177Z,99286
2017-11-03T06:55:25.696Z,99285
2017-11-03T06:57:31.460Z,99290
2017-11-03T06:59:37.646Z,99290
2017-11-03T07:01:44.573Z,99290
2017-11-03T07:03:50.412Z,99296
2017-11-03T07:05:56.918Z,99297
2017-11-03T07:08:13.001Z,99295
2017-11-03T07:10:19.764Z,99299
2017-11-03T07:12:30.807Z,99300
2017-11-03T07:14:42.108Z,99304
2017-11-03T07:16:50.900Z,99304
2017-11-03T07:18:58.652Z,99304
2017-11-03T07:21:09.056Z,99303
2017-11-03T07:23:14.870Z,99301
2017-11-03T07:25:21.256Z,99308
2017-11-03T07:27:27.859Z,99306
2017-11-03T07:29:33.337Z,99309
2017-11-03T07:31:39.255Z,99310
2017-11-03T07:33:46.921Z,99308
2017-11-03T07:35:53.276Z,99308
2017-11-03T07:38:02.442Z,99316
2017-11-03T07:40:08.193Z,99312
2017-11-03T07:42:13.830Z,99314
2017-11-03T07:44:19.363Z,99318
2017-11-03T07:46:25.716Z,99316
2017-11-03T07:48:31.265Z,99318
2017-11-03T07:50:36.712Z,99321
2017-11-03T07:52:43.332Z,99316
2017-11-03T07:54:49.351Z,99316
2017-11-03T07:56:55.889Z,99317
2017-11-03T07:59:06.861Z,99317
2017-11-03T08:01:15.304Z,99322
2017-11-03T08:03:20.830Z,99323
2017-11-03T08:05:26.361Z,99330
2017-11-03T08:07:32.078Z,99328
2017-11-03T08:09:37.834Z,99328
2017-11-03T08:11:44.190Z,99330
2017-11-03T08:13:50.273Z,99332
2017-11-03T08:15:57.730Z,99328
2017-11-03T08:18:10.112Z,99327
2017-11-03T08:22:28.639Z,99329
2017-11-03T08:24:35.590Z,99328
2017-11-03T08:26:42.391Z,99324
2017-11-03T08:28:50.108Z,99324
2017-11-03T08:30:58.842Z,99322
2017-11-03T08:33:10.223Z,99317
2017-11-03T08:35:16.356Z,99321
2017-11-03T08:37:21.886Z,99324
2017-11-03T08:39:28.767Z,99320
2017-11-03T08:41:34.463Z,99322
2017-11-03T08:43:39.985Z,99317
2017-11-03T08:45:45.848Z,99324
2017-11-03T08:47:51.724Z,99323
2017-11-03T08:49:59.049Z,99318
2017-11-03T08:52:07.730Z,99319
2017-11-03T08:54:13.512Z,99321
2017-11-03T08:56:20.096Z,99321
2017-11-03T08:58:26.143Z,99321
2017-11-03T09:00:31.907Z,99316
2017-11-03T09:02:37.779Z,99317
2017-11-03T09:04:43.826Z,99321
2017-11-03T09:06:50.410Z,99323
2017-11-03T09:08:56.644Z,99324
2017-11-03T09:11:03.167Z,99323
2017-11-03T09:13:10.873Z,99322
2017-11-03T09:17:31.852Z,99318
2017-11-03T09:19:43.218Z,99328
2017-11-03T09:21:49.139Z,99324
2017-11-03T09:24:04.158Z,99315
2017-11-03T09:26:12.045Z,99319
2017-11-03T09:28:19.754Z,99320
2017-11-03T09:30:27.240Z,99323
2017-11-03T09:32:33.800Z,99321
2017-11-03T09:34:39.760Z,99319
2017-11-03T09:36:45.505Z,99319
2017-11-03T09:38:57.905Z,99326
2017-11-03T09:41:12.060Z,99324
2017-11-03T09:43:18.924Z,99327
2017-11-03T09:45:27.614Z,99325
2017-11-03T09:47:35.401Z,99323
2017-11-03T09:49:46.067Z,99325
2017-11-03T09:51:53.035Z,99324
2017-11-03T09:54:08.872Z,99326
2017-11-03T09:56:15.498Z,99324
2017-11-03T09:58:24.013Z,99326
2017-11-03T10:00:33.907Z,99328
2017-11-03T10:02:40.491Z,99319
2017-11-03T10:04:49.186Z,99330
2017-11-03T10:06:59.988Z,99325
2017-11-03T10:09:16.904Z,99318
2017-11-03T10:11:26.869Z,99317
2017-11-03T10:13:36.391Z,99319
2017-11-03T10:15:43.536Z,99318
2017-11-03T10:17:50.208Z,99321
2017-11-03T10:20:21.186Z,99317
2017-11-03T10:22:26.909Z,99314
2017-11-03T10:24:38.476Z,99311
2017-11-03T10:26:45.238Z,99309
2017-11-03T10:28:53.654Z,99311
2017-11-03T10:31:24.382Z,99312
2017-11-03T10:33:45.738Z,99303
2017-11-03T10:35:57.819Z,99305
2017-11-03T10:38:13.008Z,99304
2017-11-03T10:40:25.953Z,99298
2017-11-03T10:42:42.961Z,99293
2017-11-03T10:44:54.287Z,99290
2017-11-03T10:47:07.650Z,99285
2017-11-03T10:49:17.198Z,99281
2017-11-03T10:51:37.355Z,99279
2017-11-03T10:53:49.222Z,99274
2017-11-03T10:55:58.699Z,99275
2017-11-03T10:58:22.029Z,99274
2017-11-03T11:00:35.429Z,99271
2017-11-03T11:02:54.095Z,99267
2017-11-03T11:05:18.141Z,99268
2017-11-03T11:07:31.728Z,99262
2017-11-03T11:09:42.200Z,99267
2017-11-03T11:16:22.010Z,99261
2017-11-03T11:18:28.375Z,99261
2017-11-03T11:20:34.249Z,99265
2017-11-03T11:22:39.928Z,99264
2017-11-03T11:24:45.767Z,99264
2017-11-03T11:26:53.264Z,99261
2017-11-03T11:28:59.813Z,99256
2017-11-03T11:31:10.839Z,99259
2017-11-03T11:33:20.382Z,99257
2017-11-03T11:35:26.758Z,99258
2017-11-03T11:37:33.730Z,99255
2017-11-03T11:39:40.199Z,99248
2017-11-03T11:41:46.258Z,99250
2017-11-03T11:43:52.739Z,99247
2017-11-03T11:46:04.305Z,99249
2017-11-03T11:48:12.838Z,99244
2017-11-03T11:50:18.528Z,99242
2017-11-03T11:52:24.172Z,99240
2017-11-03T11:54:30.213Z,99238
2017-11-03T11:56:36.989Z,99239
2017-11-03T11:58:55.489Z,99237
2017-11-03T12:01:21.845Z,99238
2017-11-03T12:03:34.778Z,99235
2017-11-03T12:05:48.041Z,99231
2017-11-03T12:07:56.153Z,99228
2017-11-03T12:10:24.734Z,99225
2017-11-03T12:12:38.996Z,99226
2017-11-03T12:14:58.599Z,99221
2017-11-03T12:17:11.531Z,99219
2017-11-03T12:19:30.132Z,99213
2017-11-03T12:27:28.413Z,99208
2017-11-03T12:29:34.323Z,99215
2017-11-03T12:31:40.176Z,99213
2017-11-03T12:33:48.482Z,99212
2017-11-03T12:35:55.687Z,99211
2017-11-03T12:38:11.550Z,99213
2017-11-03T12:40:19.349Z,99212
2017-11-03T12:44:46.673Z,99214
2017-11-03T12:47:00.996Z,99215
2017-11-03T12:49:19.072Z,99211
2017-11-03T12:51:50.477Z,99207
2017-11-03T12:53:57.656Z,99201
2017-11-03T12:56:06.331Z,99200
2017-11-03T12:58:19.392Z,99203
2017-11-03T13:00:26.542Z,99199
2017-11-03T13:02:34.070Z,99196
2017-11-03T13:04:41.298Z,99200
2017-11-03T13:06:48.851Z,99197
2017-11-03T13:08:55.437Z,99202
2017-11-03T13:11:02.958Z,99205
2017-11-03T13:13:15.530Z,99200
2017-11-03T13:15:23.424Z,99205
2017-11-03T13:17:29.466Z,99201
2017-11-03T13:19:36.755Z,99204
2017-11-03T13:21:42.636Z,99198
2017-11-03T13:23:52.734Z,99197
2017-11-03T13:26:03.953Z,99200
2017-11-03T13:28:13.463Z,99197
2017-11-03T13:30:20.151Z,99200
2017-11-03T13:32:27.528Z,99198
2017-11-03T13:34:34.155Z,99194
2017-11-03T13:36:41.554Z,99195
2017-11-03T13:38:48.709Z,99193
2017-11-03T13:40:55.163Z,99193
2017-11-03T13:43:01.654Z,99190
2017-11-03T13:45:09.451Z,99190
2017-11-03T13:47:16.476Z,99187
2017-11-03T13:49:23.118Z,99183
2017-11-03T13:51:30.153Z,99181
2017-11-03T13:53:36.765Z,99186
2017-11-03T13:55:43.063Z,99180
2017-11-03T13:57:49.932Z,99185
2017-11-03T13:59:59.004Z,99183
2017-11-03T14:02:10.639Z,99186
2017-11-03T14:04:16.784Z,99176
2017-11-03T14:06:25.462Z,99175
2017-11-03T14:08:31.493Z,99174
2017-11-03T14:10:38.470Z,99175
2017-11-03T14:12:46.100Z,99174
2017-11-03T14:14:54.218Z,99174
2017-11-03T14:17:04.390Z,99174
2017-11-03T14:19:12.537Z,99168
2017-11-03T14:21:20.604Z,99167
2017-11-03T14:23:28.674Z,99164
2017-11-03T14:25:35.498Z,99165
2017-11-03T15:10:59.587Z,99150
2017-11-03T15:13:10.526Z,99149
2017-11-03T15:15:17.719Z,99147
2017-11-03T15:17:23.996Z,99148
2017-11-03T15:19:32.883Z,99147
2017-11-03T15:21:40.333Z,99145
2017-11-03T15:23:46.500Z,99146
2017-11-03T15:25:53.748Z,99146
2017-11-03T15:28:00.953Z,99142
2017-11-03T15:30:14.232Z,99142
2017-11-03T15:32:20.724Z,99143
2017-11-03T15:34:26.483Z,99145
2017-11-03T15:36:32.901Z,99140
2017-11-03T15:38:40.869Z,99141
2017-11-03T15:40:47.821Z,99139
2017-11-03T15:42:53.583Z,99136
2017-11-03T15:45:02.753Z,99131
2017-11-03T15:47:11.034Z,99134
2017-11-03T15:49:17.434Z,99136
2017-11-03T15:51:23.593Z,99134
2017-11-03T15:53:30.230Z,99131
2017-11-03T15:55:40.241Z,99143
2017-11-03T15:57:49.187Z,99133
2017-11-03T16:00:09.074Z,99136
2017-11-03T16:02:15.686Z,99137
2017-11-03T16:04:21.203Z,99132
2017-11-03T16:06:27.771Z,99135
2017-11-03T16:08:33.959Z,99133
2017-11-03T16:10:39.565Z,99130
2017-11-03T16:12:45.427Z,99126
2017-11-03T16:14:52.601Z,99132
2017-11-03T16:19:11.439Z,99134
2017-11-03T16:21:17.149Z,99132
2017-11-03T16:23:24.076Z,99139
2017-11-03T16:25:30.066Z,99144
2017-11-03T16:27:35.835Z,99140
2017-11-03T16:29:41.730Z,99144
2017-11-03T16:31:49.109Z,99147
2017-11-03T16:33:55.934Z,99150
2017-11-03T16:36:05.420Z,99145
2017-11-03T16:38:12.573Z,99149
2017-11-03T16:40:18.265Z,99151
2017-11-03T16:42:23.764Z,99150
2017-11-03T16:44:29.999Z,99146
2017-11-03T16:46:36.470Z,99150
2017-11-03T16:48:43.615Z,99150
2017-11-03T16:50:49.946Z,99151
2017-11-03T16:52:55.846Z,99154
2017-11-03T16:55:07.772Z,99153
2017-11-03T16:57:15.030Z,99156
2017-11-03T16:59:20.993Z,99158
2017-11-03T17:01:27.067Z,99159
2017-11-03T17:03:33.743Z,99147
2017-11-03T17:05:42.437Z,99150
2017-11-03T17:07:48.355Z,99159
2017-11-03T17:09:56.917Z,99154
2017-11-03T17:12:04.701Z,99152
2017-11-03T17:14:14.784Z,99157
2017-11-03T17:16:21.185Z,99150
2017-11-03T17:18:26.844Z,99144
2017-11-03T17:20:32.701Z,99143
2017-11-03T17:22:46.469Z,99138
2017-11-03T17:24:57.718Z,99143
2017-11-03T17:27:09.709Z,99144
2017-11-03T17:29:22.807Z,99142
2017-11-03T17:31:46.694Z,99141
2017-11-03T17:33:57.661Z,99135
2017-11-03T17:36:12.483Z,99131
2017-11-03T17:38:30.294Z,99131
2017-11-03T17:40:45.326Z,99127
2017-11-03T17:45:35.146Z,99129
2017-11-03T17:47:47.319Z,99126
2017-11-03T17:50:20.051Z,99122
2017-11-03T17:52:53.816Z,99124
2017-11-03T17:55:13.310Z,99126
2017-11-03T17:57:22.165Z,99121
2017-11-03T17:59:54.537Z,99120
2017-11-03T18:02:11.932Z,99120
2017-11-03T18:04:23.018Z,99116
2017-11-03T18:06:32.367Z,99117
2017-11-03T18:11:22.429Z,99112
2017-11-03T18:13:40.761Z,99109
2017-11-03T18:15:50.783Z,99106
2017-11-03T18:18:35.383Z,99104
2017-11-03T18:20:46.179Z,99106
2017-11-03T18:23:08.081Z,99107
2017-11-03T18:25:16.060Z,99097
2017-11-03T18:27:29.702Z,99094
2017-11-03T18:29:44.661Z,99095
2017-11-03T18:32:05.675Z,99099
2017-11-03T18:34:18.052Z,99095
2017-11-03T18:36:29.824Z,99092
2017-11-03T18:38:39.760Z,99098
2017-11-03T18:40:46.540Z,99101
2017-11-03T18:42:54.975Z,99093
2017-11-03T18:45:10.617Z,99091
2017-11-03T18:47:16.686Z,99087
2017-11-03T18:49:24.675Z,99094
2017-11-03T18:51:30.197Z,99081
2017-11-03T18:53:36.091Z,99086
2017-11-03T18:55:42.462Z,99089
2017-11-03T18:57:50.814Z,99090
2017-11-03T18:59:58.596Z,99086
2017-11-03T19:02:26.185Z,99086
2017-11-03T19:04:34.944Z,99085
2017-11-03T19:06:41.881Z,99082
2017-11-03T19:09:04.509Z,99073
2017-11-03T19:11:18.904Z,99071
2017-11-03T19:13:34.100Z,99077
2017-11-03T19:15:42.597Z,99076
2017-11-03T19:17:49.353Z,99084
2017-11-03T19:19:56.710Z,99082
2017-11-03T19:22:27.531Z,99086
2017-11-03T19:24:34.669Z,99084
2017-11-03T19:26:42.516Z,99082
2017-11-03T19:29:33.458Z,99076
2017-11-03T19:32:01.862Z,99073
2017-11-03T19:34:11.382Z,99081
2017-11-03T19:36:24.911Z,99082
2017-11-03T19:43:25.556Z,99082
2017-11-03T19:51:37.274Z,99085
2017-11-03T19:53:54.341Z,99085
2017-11-03T19:56:01.578Z,99085
2017-11-03T19:58:08.054Z,99078
2017-11-03T20:00:22.533Z,99088
2017-11-03T20:02:30.615Z,99078
2017-11-03T20:04:45.919Z,99082
2017-11-03T20:06:52.745Z,99083
2017-11-03T20:09:03.557Z,99083
2017-11-03T20:11:12.485Z,99084
2017-11-03T20:13:18.105Z,99081
2017-11-03T20:15:27.689Z,99081
2017-11-03T20:17:36.118Z,99078
2017-11-03T20:19:43.835Z,99077
2017-11-03T20:21:53.315Z,99073
2017-11-03T20:24:24.562Z,99080
2017-11-03T20:26:36.637Z,99074
2017-11-03T20:31:16.626Z,99072
2017-11-03T20:33:23.824Z,99067
2017-11-03T20:35:31.572Z,99074
2017-11-03T20:37:38.109Z,99073
2017-11-03T20:39:44.336Z,99069
2017-11-03T20:41:53.348Z,99069
2017-11-03T20:44:01.524Z,99073
2017-11-03T20:46:11.347Z,99061
2017-11-03T20:48:18.273Z,99067
2017-11-03T20:50:31.250Z,99076
2017-11-03T20:52:37.139Z,99071
2017-11-03T20:54:44.680Z,99074
2017-11-03T20:56:50.569Z,99073
2017-11-03T20:59:00.641Z,99068
2017-11-03T21:01:10.258Z,99066
2017-11-03T21:03:16.081Z,99061
2017-11-03T21:05:23.106Z,99061
2017-11-03T21:07:29.844Z,99060
2017-11-03T21:09:42.840Z,99060
2017-11-03T21:11:52.109Z,99067
2017-11-03T21:14:08.344Z,99068
2017-11-03T21:16:19.595Z,99068
2017-11-03T21:18:31.934Z,99063
2017-11-03T21:20:40.351Z,99063
2017-11-03T21:22:51.454Z,99064
2017-11-03T21:27:15.300Z,99063
2017-11-03T21:29:27.912Z,99060
2017-11-03T21:31:42.101Z,99060
2017-11-03T21:33:55.206Z,99056
2017-11-03T21:36:13.413Z,99052
2017-11-03T22:23:29.631Z,99027
2017-11-03T22:25:39.532Z,99033
2017-11-03T22:27:46.020Z,99025
2017-11-03T22:29:53.668Z,99019
2017-11-03T22:34:37.062Z,99014
2017-11-03T22:36:47.734Z,99013
2017-11-03T22:38:55.668Z,99014
2017-11-03T22:41:23.478Z,99014
2017-11-03T22:43:32.806Z,99017
2017-11-03T22:45:55.236Z,99013
2017-11-03T22:48:17.982Z,99014
2017-11-03T22:50:26.939Z,99008
2017-11-03T22:52:43.831Z,99004
2017-11-03T22:57:22.313Z,99008
2017-11-03T22:59:38.153Z,99007
2017-11-03T23:01:55.545Z,98999
2017-11-03T23:06:38.537Z,99000
2017-11-03T23:09:14.149Z,98996
2017-11-03T23:11:32.723Z,98992
2017-11-03T23:13:42.552Z,98994
2017-11-03T23:15:53.004Z,98991
2017-11-03T23:18:11.138Z,98994
2017-11-03T23:20:20.709Z,98988
2017-11-03T23:22:35.806Z,98984
2017-11-03T23:24:44.061Z,98985
2017-11-03T23:26:53.487Z,98983
2017-11-03T23:29:04.787Z,98990
2017-11-03T23:31:14.442Z,98985
2017-11-03T23:33:21.630Z,98989
2017-11-03T23:40:35.603Z,98973
2017-11-03T23:42:45.578Z,98980
2017-11-03T23:44:55.122Z,98976
2017-11-03T23:47:09.863Z,98970
2017-11-03T23:49:30.476Z,98967
2017-11-03T23:51:38.132Z,98969
2017-11-03T23:53:45.432Z,98970
2017-11-03T23:55:54.982Z,98965
2017-11-03T23:58:08.514Z,98962
